Main page
METAR-TAF:

METAR-TAF

Airports :

Tabriz International Airport

Tabriz, Iran

latitude: 38-05N, longitude: 046-17E, elevation: 1367 m

Current weather observation

The report was made 40 minutes ago, at 18:30 UTC
Wind 4 kt from the Northeast
Temperature -5°C
Humidity 79%
Pressure 1020 hPa
Visibility 10 km or more
Few clouds at a height of 1800 ft

METAR: OITT 181830Z 05004KT 9999 FEW018 M05/M08 Q1019 A3012

Time: 22:40 (19:10 UTC)

Forecast

The report was made 1 hour and 40 minutes ago, at 17:30 UTC
Forecast valid from 18 at 18 UTC to 19 at 24 UTC
Wind 6 kt from the East/Northeast
Visibility: 7000 m
Few clouds at a height of 2000 ft
Probability 40%
from 18 at 23 UTC to 19 at 05 UTC
Visibility: 3000 m
Few clouds at a height of 1500 ft
mist
Becoming
from 19 at 18 UTC to 19 at 20 UTC
Visibility: 6000 m
haze

TAF: OITT 181730Z 1818/1924 06006KT 7000 FEW020 PROB40 1823/1905 3000 BR FEW015 BECMG 1918/1920 6000 HZ NSC

Weather observations and forecasts of more than 4000 airports (METAR and TAF reports).

The available stations are represented by yellow and red dots on the map.

Hover mouse over dot to see the name of the station.

Then click to see weather observations and forecasts.

To change the map : click on the green buttons with a black cross to zoom in, on the green button with a dash to zoom out, or on the green arrows for adjacent maps.


METAR-TAF: